Time;durP1;ratioP1;P1;durP2;ratioP2;P2;SDS_P1;SDS_P2;PMS_P1;PMS_P2;Temp;Humidity;BMP_temperature;BMP_pressure;BME280_temperature;BME280_humidity;BME280_pressure;Samples;Min_cycle;Max_cycle;Signal;HPM_P1;HPM_P2
2022/12/31 00:01:48;;;;;;;1.20;0.32;;;;;;;11.29;100.00;95497.22;4962622;28;20093;-75
2022/12/31 00:04:13;;;;;;;0.68;0.40;;;;;;;11.23;100.00;95499.88;4971678;28;20425;-75
2022/12/31 00:06:39;;;;;;;0.98;0.40;;;;;;;11.36;100.00;95498.47;4955583;28;20059;-75
2022/12/31 00:09:06;;;;;;;0.45;0.38;;;;;;;11.34;100.00;95499.81;4957085;28;20062;-75
2022/12/31 00:11:34;;;;;;;0.40;0.40;;;;;;;11.26;100.00;95494.06;4968092;28;20038;-75
2022/12/31 00:14:00;;;;;;;2.67;0.47;;;;;;;11.29;100.00;95502.47;4961342;28;20051;-75
2022/12/31 00:16:30;;;;;;;4.93;0.63;;;;;;;11.35;100.00;95496.09;4947702;28;20044;-75
2022/12/31 00:19:00;;;;;;;0.35;0.35;;;;;;;11.15;100.00;95497.81;4938071;28;20489;-75
2022/12/31 00:21:28;;;;;;;0.30;0.30;;;;;;;11.40;100.00;95493.44;4957350;28;20104;-76
2022/12/31 00:23:54;;;;;;;1.60;0.32;;;;;;;11.38;100.00;95490.31;4963220;28;20043;-75
2022/12/31 00:26:23;;;;;;;0.50;0.28;;;;;;;11.51;100.00;95489.69;4970013;28;20078;-75
2022/12/31 00:28:50;;;;;;;1.35;0.52;;;;;;;11.41;100.00;95481.84;4939892;28;20059;-75
2022/12/31 00:31:25;;;;;;;0.35;0.30;;;;;;;11.33;100.00;95482.44;4946359;28;20054;-75
2022/12/31 00:33:51;;;;;;;0.80;0.45;;;;;;;11.16;100.00;95488.88;4952400;28;20039;-75
2022/12/31 00:36:22;;;;;;;0.43;0.43;;;;;;;11.33;100.00;95487.69;4944411;28;20070;-75
2022/12/31 00:38:49;;;;;;;0.20;0.20;;;;;;;11.45;100.00;95488.16;4933056;29;20047;-75
2022/12/31 00:41:16;;;;;;;1.17;0.32;;;;;;;11.68;100.00;95483.22;4944146;28;20039;-74
2022/12/31 00:43:42;;;;;;;0.38;0.15;;;;;;;11.57;100.00;95488.56;4959176;28;20044;-74
2022/12/31 00:46:08;;;;;;;0.20;0.20;;;;;;;11.75;100.00;95496.84;4962396;28;20050;-75
2022/12/31 00:48:35;;;;;;;0.30;0.30;;;;;;;11.79;100.00;95497.88;4953452;28;20521;-75
2022/12/31 00:51:02;;;;;;;0.25;0.20;;;;;;;11.71;100.00;95498.47;4939415;28;20043;-76
2022/12/31 00:53:28;;;;;;;0.20;0.20;;;;;;;11.96;100.00;95500.91;4960730;28;20097;-75
2022/12/31 00:56:02;;;;;;;0.40;0.30;;;;;;;11.96;100.00;95500.91;4963591;28;20134;-76
2022/12/31 00:58:28;;;;;;;0.50;0.20;;;;;;;11.98;100.00;95523.59;4933409;28;20051;-76
2022/12/31 01:00:54;;;;;;;0.55;0.38;;;;;;;11.90;100.00;95523.09;4934416;28;20047;-75
2022/12/31 01:03:20;;;;;;;0.52;0.30;;;;;;;11.88;100.00;95543.69;4956494;28;20050;-76
2022/12/31 01:05:45;;;;;;;3.90;0.50;;;;;;;11.76;100.00;95538.75;4948302;28;20065;-76
2022/12/31 01:08:11;;;;;;;0.95;0.30;;;;;;;11.78;100.00;95536.66;4971245;28;20043;-76
2022/12/31 01:13:20;;;;;;;0.40;0.40;;;;;;;11.80;100.00;95554.84;4956916;28;20046;-76
2022/12/31 01:15:46;;;;;;;0.28;0.20;;;;;;;11.90;100.00;95560.03;4954737;28;20061;-75
2022/12/31 01:18:12;;;;;;;0.45;0.30;;;;;;;12.04;100.00;95559.41;4967161;28;20034;-75
2022/12/31 01:20:41;;;;;;;0.30;0.25;;;;;;;12.02;100.00;95566.81;4932613;29;20422;-75
2022/12/31 01:23:08;;;;;;;0.50;0.50;;;;;;;11.99;100.00;95567.38;4946224;28;20050;-75
2022/12/31 01:25:35;;;;;;;0.20;0.20;;;;;;;11.96;100.00;95563.44;4965051;28;20051;-75
2022/12/31 01:28:03;;;;;;;0.75;0.50;;;;;;;12.08;100.00;95577.06;4962742;28;20110;-76
2022/12/31 01:30:28;;;;;;;0.95;0.30;;;;;;;12.06;100.00;95584.44;4932576;29;20047;-75
2022/12/31 01:32:54;;;;;;;0.55;0.30;;;;;;;12.00;100.00;95584.78;4942810;28;20070;-75
2022/12/31 01:35:19;;;;;;;0.35;0.35;;;;;;;11.95;100.00;95583.75;4962294;28;20050;-75
2022/12/31 01:37:45;;;;;;;0.30;0.30;;;;;;;12.15;100.00;95603.09;4952049;28;20068;-75
2022/12/31 01:40:11;;;;;;;0.30;0.30;;;;;;;12.06;100.00;95595.00;4935896;29;20090;-75
2022/12/31 01:42:37;;;;;;;0.30;0.30;;;;;;;12.05;100.00;95593.44;4940496;29;20047;-75
2022/12/31 01:45:02;;;;;;;0.73;0.40;;;;;;;12.17;100.00;95606.28;4954630;28;20046;-75
2022/12/31 01:47:38;;;;;;;0.43;0.32;;;;;;;12.19;100.00;95608.63;4953952;28;20387;-75
2022/12/31 01:50:29;;;;;;;2.75;0.30;;;;;;;11.96;100.00;95606.41;4935511;28;20466;-75
2022/12/31 01:53:02;;;;;;;0.30;0.20;;;;;;;12.17;100.00;95608.91;4940155;28;20118;-74
2022/12/31 01:55:43;;;;;;;0.32;0.32;;;;;;;12.18;100.00;95607.81;4959272;28;20101;-74
2022/12/31 01:58:37;;;;;;;1.25;0.55;;;;;;;12.25;100.00;95602.22;4962541;28;20043;-74
2022/12/31 02:01:04;;;;;;;0.55;0.32;;;;;;;12.26;100.00;95604.59;4934787;29;20095;-74
2022/12/31 02:03:30;;;;;;;0.20;0.20;;;;;;;12.14;100.00;95604.19;4942345;28;20054;-74
2022/12/31 02:06:03;;;;;;;0.25;0.25;;;;;;;12.14;100.00;95601.56;4951586;28;20039;-74
2022/12/31 02:08:29;;;;;;;0.60;0.30;;;;;;;12.21;100.00;95602.03;4961253;28;20523;-74
2022/12/31 02:10:55;;;;;;;0.30;0.30;;;;;;;12.35;100.00;95606.66;4957079;28;20043;-75
2022/12/31 02:13:21;;;;;;;0.28;0.28;;;;;;;12.20;100.00;95604.94;4968912;28;20469;-75
2022/12/31 02:16:09;;;;;;;0.30;0.30;;;;;;;12.27;100.00;95611.44;4960229;28;20039;-75
2022/12/31 02:18:43;;;;;;;0.85;0.38;;;;;;;12.24;100.00;95616.47;4964168;28;20039;-74
2022/12/31 02:21:33;;;;;;;1.08;0.43;;;;;;;12.25;100.00;95608.28;4935257;29;20051;-74
2022/12/31 02:24:17;;;;;;;0.52;0.20;;;;;;;12.32;100.00;95602.69;4957746;28;20085;-74
2022/12/31 02:27:06;;;;;;;1.50;0.32;;;;;;;12.21;100.00;95602.03;4961444;28;20062;-74
2022/12/31 02:30:03;;;;;;;1.00;0.40;;;;;;;12.25;100.00;95597.72;4965912;28;20046;-74
2022/12/31 02:32:47;;;;;;;0.30;0.30;;;;;;;12.23;100.00;95602.50;4971576;28;20054;-75
2022/12/31 02:35:23;;;;;;;0.30;0.30;;;;;;;12.20;100.00;95605.72;4965633;28;20038;-75
2022/12/31 02:37:55;;;;;;;0.22;0.22;;;;;;;12.34;100.00;95597.13;4935290;28;20523;-75
2022/12/31 02:40:22;;;;;;;0.28;0.28;;;;;;;12.40;100.00;95593.41;4934951;29;20048;-75
2022/12/31 02:42:47;;;;;;;0.28;0.28;;;;;;;12.42;100.00;95596.53;4934779;29;20494;-75
2022/12/31 02:45:21;;;;;;;0.38;0.38;;;;;;;12.39;100.00;95597.09;4950616;28;20070;-75
2022/12/31 02:48:00;;;;;;;0.35;0.30;;;;;;;12.30;100.00;95600.34;4952683;28;20043;-75
2022/12/31 02:50:54;;;;;;;0.28;0.20;;;;;;;12.17;100.00;95603.63;4935127;29;20487;-75
2022/12/31 02:53:47;;;;;;;0.40;0.30;;;;;;;12.17;100.00;95598.34;4934575;29;20191;-75
2022/12/31 02:56:37;;;;;;;0.20;0.20;;;;;;;12.52;100.00;95603.59;4964404;28;20070;-74
2022/12/31 03:02:18;;;;;;;2.15;0.40;;;;;;;12.63;100.00;95602.44;4939464;28;20047;-74
2022/12/31 03:04:53;;;;;;;0.22;0.20;;;;;;;12.64;100.00;95604.78;4964244;28;20046;-75
2022/12/31 03:07:25;;;;;;;0.40;0.32;;;;;;;12.51;100.00;95610.69;4944358;28;20417;-74
2022/12/31 03:09:50;;;;;;;0.30;0.30;;;;;;;12.52;100.00;95607.00;4953813;28;20075;-75
2022/12/31 03:15:05;;;;;;;1.00;0.40;;;;;;;12.62;100.00;95601.63;4947310;28;20042;-74
2022/12/31 03:17:34;;;;;;;0.85;0.60;;;;;;;12.49;100.00;95607.56;4950760;29;20101;-74
2022/12/31 03:22:43;;;;;;;0.73;0.40;;;;;;;12.46;100.00;95608.13;4933958;29;20047;-74
2022/12/31 03:28:02;;;;;;;0.47;0.45;;;;;;;12.55;100.00;95617.00;4933894;28;20063;-74
2022/12/31 03:30:28;;;;;;;1.67;0.40;;;;;;;12.55;100.00;95622.28;4951807;29;20043;-74
2022/12/31 03:32:57;;;;;;;0.50;0.50;;;;;;;12.77;100.00;95623.66;4952332;28;20529;-74
2022/12/31 03:35:24;;;;;;;0.75;0.50;;;;;;;12.72;100.00;95626.38;4963785;28;20043;-74
2022/12/31 03:37:50;;;;;;;0.50;0.43;;;;;;;12.79;100.00;95624.16;4946893;28;20039;-74
2022/12/31 03:40:18;;;;;;;1.33;0.63;;;;;;;12.94;100.00;95623.22;4952943;28;20039;-75
2022/12/31 03:42:44;;;;;;;0.40;0.40;;;;;;;12.84;100.00;95634.66;4952803;28;20047;-75
2022/12/31 03:45:10;;;;;;;0.40;0.40;;;;;;;12.96;100.00;95636.94;4965698;28;20042;-75
2022/12/31 03:47:37;;;;;;;0.60;0.50;;;;;;;13.04;100.00;95644.22;4952037;28;20035;-75
2022/12/31 03:50:04;;;;;;;0.45;0.45;;;;;;;13.06;100.00;95636.03;4949125;28;20122;-75
2022/12/31 03:52:29;;;;;;;0.50;0.50;;;;;;;13.10;100.00;95637.84;4952599;28;20058;-75
2022/12/31 03:54:55;;;;;;;0.75;0.70;;;;;;;13.21;100.00;95638.50;4961615;28;20034;-75
2022/12/31 03:57:21;;;;;;;1.55;0.60;;;;;;;13.00;100.00;95636.09;4963800;28;20094;-75
2022/12/31 03:59:47;;;;;;;1.38;0.75;;;;;;;13.23;100.00;95641.66;4945440;28;20086;-75
2022/12/31 04:02:13;;;;;;;0.50;0.50;;;;;;;12.98;100.00;95648.78;4952522;28;20130;-75
2022/12/31 04:04:38;;;;;;;0.60;0.60;;;;;;;12.92;100.00;95639.34;4956532;28;20043;-75
2022/12/31 04:07:04;;;;;;;1.73;0.85;;;;;;;12.86;100.00;95648.41;4952902;28;20110;-74
2022/12/31 04:09:29;;;;;;;1.52;0.80;;;;;;;12.93;100.00;95648.84;4952271;28;20047;-75
2022/12/31 04:11:55;;;;;;;3.72;0.88;;;;;;;12.97;100.00;95646.41;4962293;28;20035;-75
2022/12/31 04:14:20;;;;;;;1.23;0.73;;;;;;;13.15;100.00;95645.69;4957809;28;20149;-75
2022/12/31 04:16:46;;;;;;;2.05;0.90;;;;;;;13.12;100.00;95650.75;4932884;29;20043;-75
2022/12/31 04:19:12;;;;;;;0.77;0.57;;;;;;;13.12;100.00;95663.97;4947056;28;20039;-75
2022/12/31 04:21:38;;;;;;;0.50;0.47;;;;;;;13.23;100.00;95665.44;4956613;28;20106;-75
2022/12/31 04:24:04;;;;;;;0.60;0.60;;;;;;;12.99;100.00;95663.56;4963153;28;20130;-75
2022/12/31 04:26:29;;;;;;;1.27;0.80;;;;;;;13.03;100.00;95668.28;4971259;28;20050;-75
2022/12/31 04:28:55;;;;;;;1.23;0.85;;;;;;;12.90;100.00;95675.81;4958269;28;20102;-75
2022/12/31 04:31:21;;;;;;;0.60;0.60;;;;;;;13.07;100.00;95674.59;4951436;28;20126;-75
2022/12/31 04:33:46;;;;;;;1.10;0.80;;;;;;;13.20;100.00;95679.19;4967265;28;20039;-75
2022/12/31 04:36:12;;;;;;;1.77;0.80;;;;;;;13.17;100.00;95687.69;4966228;28;20058;-74
2022/12/31 04:38:37;;;;;;;1.55;0.70;;;;;;;13.21;100.00;95696.63;4951999;28;20047;-74
2022/12/31 04:41:19;;;;;;;1.17;0.77;;;;;;;13.29;100.00;95693.38;4951914;29;20063;-74
2022/12/31 04:43:53;;;;;;;0.85;0.70;;;;;;;13.12;100.00;95677.19;4963366;28;20417;-74
2022/12/31 04:46:21;;;;;;;;;;;;;;;13.18;100.00;95694.56;4951940;28;20058;-74
2022/12/31 04:48:46;;;;;;;2.03;1.00;;;;;;;13.17;100.00;95691.13;4957657;28;20296;-74
2022/12/31 04:51:12;;;;;;;0.60;0.60;;;;;;;13.20;100.00;95689.75;4932898;29;20048;-74
2022/12/31 04:53:38;;;;;;;1.52;0.65;;;;;;;13.31;100.00;95685.94;4932705;29;20043;-74
2022/12/31 04:56:04;;;;;;;0.80;0.80;;;;;;;13.41;100.00;95674.50;4942827;28;20553;-74
2022/12/31 04:58:31;;;;;;;1.15;0.80;;;;;;;13.41;100.00;95695.63;4960063;28;20047;-74
2022/12/31 05:00:57;;;;;;;1.02;0.47;;;;;;;13.69;100.00;95691.34;4971234;28;20101;-75
2022/12/31 05:03:24;;;;;;;0.73;0.57;;;;;;;13.40;100.00;95698.56;4971302;28;20043;-75
2022/12/31 05:05:50;;;;;;;1.25;0.55;;;;;;;13.38;100.00;95690.16;4945045;28;20056;-75
2022/12/31 05:08:17;;;;;;;0.68;0.68;;;;;;;13.50;100.00;95709.03;4955325;28;20414;-75
2022/12/31 05:10:48;;;;;;;0.50;0.50;;;;;;;13.72;100.00;95702.41;4951696;28;20039;-75
2022/12/31 05:13:14;;;;;;;1.20;0.73;;;;;;;13.72;100.00;95705.84;4955500;28;20054;-74
2022/12/31 05:15:40;;;;;;;0.75;0.70;;;;;;;13.76;100.00;95700.78;4937163;28;20051;-75
2022/12/31 05:18:06;;;;;;;1.52;0.85;;;;;;;13.73;100.00;95696.06;4958049;28;20042;-74
2022/12/31 05:20:32;;;;;;;0.93;0.57;;;;;;;13.74;100.00;95702.94;4970379;28;20049;-75
2022/12/31 05:22:58;;;;;;;0.60;0.60;;;;;;;13.63;100.00;95708.34;4974657;28;20069;-75
2022/12/31 05:25:24;;;;;;;0.40;0.40;;;;;;;13.64;100.00;95704.63;4974447;28;20093;-75
2022/12/31 05:27:49;;;;;;;0.60;0.60;;;;;;;13.55;100.00;95710.81;4960755;28;20054;-75
2022/12/31 05:30:17;;;;;;;1.17;0.77;;;;;;;13.58;100.00;95703.13;4955212;28;20465;-74
2022/12/31 05:32:43;;;;;;;2.03;0.70;;;;;;;13.48;100.00;95716.47;4955216;28;20055;-73
2022/12/31 05:35:09;;;;;;;2.60;0.52;;;;;;;13.46;100.00;95711.44;4954884;28;20040;-74
2022/12/31 05:37:34;;;;;;;0.30;0.30;;;;;;;13.44;100.00;95715.44;4958109;28;20102;-74
2022/12/31 05:40:00;;;;;;;0.98;0.63;;;;;;;13.23;100.00;95705.09;4965130;28;20047;-74
2022/12/31 05:42:26;;;;;;;0.55;0.55;;;;;;;13.47;100.00;95720.16;4974372;28;20043;-75
2022/12/31 05:44:52;;;;;;;1.20;0.50;;;;;;;13.22;100.00;95718.56;4969560;28;20555;-74
2022/12/31 05:47:17;;;;;;;0.75;0.60;;;;;;;13.34;100.00;95717.13;4938203;28;20052;-75
2022/12/31 05:49:43;;;;;;;0.85;0.80;;;;;;;13.15;100.00;95709.09;4953709;28;20131;-76
2022/12/31 05:52:09;;;;;;;0.52;0.52;;;;;;;13.00;100.00;95704.78;4972308;28;20106;-75
2022/12/31 05:54:35;;;;;;;0.98;0.40;;;;;;;12.91;100.00;95703.78;4972244;28;20074;-75
2022/12/31 05:57:02;;;;;;;1.00;0.73;;;;;;;12.78;100.00;95705.22;4962664;28;20450;-75
2022/12/31 05:59:28;;;;;;;1.50;0.60;;;;;;;12.83;100.00;95702.56;4964550;28;20126;-75
2022/12/31 06:01:53;;;;;;;0.57;0.57;;;;;;;12.77;100.00;95702.88;4964709;28;20223;-74
2022/12/31 06:04:19;;;;;;;0.50;0.50;;;;;;;12.58;100.00;95706.19;4969898;28;20043;-75
2022/12/31 06:06:45;;;;;;;0.70;0.70;;;;;;;12.55;100.00;95711.25;4943707;28;20051;-74
2022/12/31 06:09:11;;;;;;;0.35;0.35;;;;;;;12.39;100.00;95707.94;4948377;28;20043;-74
2022/12/31 06:11:37;;;;;;;0.73;0.65;;;;;;;12.72;100.00;95701.06;4954407;28;20047;-74
2022/12/31 06:14:02;;;;;;;1.02;0.50;;;;;;;12.40;100.00;95714.81;4954434;28;20074;-74
2022/12/31 06:16:28;;;;;;;0.43;0.43;;;;;;;12.36;100.00;95713.78;4941069;28;20107;-75
2022/12/31 06:18:54;;;;;;;0.50;0.50;;;;;;;12.41;100.00;95717.19;4945053;28;20051;-73
2022/12/31 06:21:20;;;;;;;0.88;0.80;;;;;;;12.27;100.00;95727.56;4969590;28;20046;-74
2022/12/31 06:23:47;;;;;;;0.65;0.63;;;;;;;11.75;100.00;95726.22;4954179;28;20039;-75
2022/12/31 06:26:13;;;;;;;1.85;0.80;;;;;;;11.76;100.00;95727.81;4953947;28;20058;-75
2022/12/31 06:28:39;;;;;;;0.80;0.80;;;;;;;11.78;100.00;95729.13;4956474;28;20086;-75
2022/12/31 06:31:07;;;;;;;0.93;0.60;;;;;;;11.85;100.00;95728.84;4953750;28;20048;-74
2022/12/31 06:33:33;;;;;;;0.68;0.57;;;;;;;11.54;100.00;95736.88;4953831;28;20050;-74
2022/12/31 06:36:01;;;;;;;0.60;0.60;;;;;;;11.27;100.00;95745.91;4953674;28;20468;-74
2022/12/31 06:38:29;;;;;;;1.75;0.68;;;;;;;10.96;100.00;95742.56;4940925;28;20434;-75
2022/12/31 06:40:54;;;;;;;0.70;0.70;;;;;;;11.06;100.00;95747.00;4973103;28;20110;-74
2022/12/31 06:43:21;;;;;;;1.95;0.93;;;;;;;10.96;100.00;95757.56;4973360;28;20047;-74
2022/12/31 06:45:47;;;;;;;1.55;0.80;;;;;;;10.90;100.00;95760.19;4963533;28;20035;-74
2022/12/31 06:48:13;;;;;;;2.20;0.57;;;;;;;10.87;100.00;95760.72;4963959;28;20039;-75
2022/12/31 06:50:39;;;;;;;1.35;1.25;;;;;;;10.82;100.00;95752.81;4961438;28;20058;-74
2022/12/31 06:53:05;;;;;;;1.35;0.50;;;;;;;10.68;100.00;95746.53;4954007;28;20110;-74
2022/12/31 06:55:31;;;;;;;0.65;0.50;;;;;;;10.56;100.00;95757.31;4961017;28;20094;-77
2022/12/31 06:57:57;;;;;;;1.05;0.63;;;;;;;10.53;100.00;95771.78;4938181;28;20047;-72
2022/12/31 07:00:23;;;;;;;0.45;0.45;;;;;;;10.33;100.00;95750.66;4968618;28;20081;-70
2022/12/31 07:03:07;;;;;;;1.05;0.73;;;;;;;11.14;100.00;95759.63;4968032;28;20043;-72
2022/12/31 07:05:39;;;;;;;1.75;0.95;;;;;;;11.30;100.00;95763.03;4965494;28;20046;-73
2022/12/31 07:08:43;;;;;;;0.88;0.80;;;;;;;11.24;100.00;95764.88;4962294;28;20051;-74
2022/12/31 07:11:19;;;;;;;0.60;0.60;;;;;;;11.30;100.00;95772.78;4952227;28;20039;-73
2022/12/31 07:14:08;;;;;;;1.48;0.55;;;;;;;11.42;100.00;95765.34;4968639;28;20109;-72
2022/12/31 07:16:57;;;;;;;3.67;0.70;;;;;;;11.42;100.00;95765.34;4963454;28;20497;-73
2022/12/31 07:19:38;;;;;;;0.70;0.60;;;;;;;11.63;100.00;95773.22;4956793;28;20097;-73
2022/12/31 07:22:04;;;;;;;0.60;0.60;;;;;;;11.57;100.00;95778.50;4958172;28;20067;-73
2022/12/31 07:24:30;;;;;;;2.50;0.52;;;;;;;11.43;100.00;95766.94;4961581;28;20046;-73
2022/12/31 07:27:09;;;;;;;0.85;0.70;;;;;;;11.44;100.00;95779.06;4953527;28;20042;-73
2022/12/31 07:30:04;;;;;;;0.60;0.60;;;;;;;11.43;100.00;95777.47;4957296;28;20045;-72
2022/12/31 07:32:45;;;;;;;0.45;0.45;;;;;;;11.39;100.00;95786.97;4961096;28;20066;-73
2022/12/31 07:35:36;;;;;;;1.00;0.60;;;;;;;11.47;100.00;95789.06;4960611;28;20051;-74
2022/12/31 07:38:20;;;;;;;1.35;0.40;;;;;;;11.65;100.00;95789.53;4966174;28;20729;-74
2022/12/31 07:41:38;;;;;;;0.68;0.55;;;;;;;11.68;100.00;95799.53;4961475;28;20047;-74
2022/12/31 07:44:41;;;;;;;0.90;0.47;;;;;;;11.77;100.00;95792.66;4950211;28;20118;-72
2022/12/31 07:47:28;;;;;;;0.52;0.52;;;;;;;11.74;100.00;95798.50;4946977;28;20058;-72
2022/12/31 07:49:55;;;;;;;4.07;0.80;;;;;;;11.87;100.00;95802.41;4937460;28;20051;-72
2022/12/31 07:52:21;;;;;;;0.82;0.80;;;;;;;11.75;100.00;95800.03;4936110;29;20043;-73
2022/12/31 07:54:47;;;;;;;0.85;0.70;;;;;;;11.76;100.00;95807.69;4960874;28;20035;-73
2022/12/31 07:57:15;;;;;;;0.65;0.60;;;;;;;11.72;100.00;95808.50;4964093;28;20039;-72
2022/12/31 07:59:56;;;;;;;0.50;0.50;;;;;;;11.85;100.00;95815.84;4964024;28;20043;-72
2022/12/31 08:02:36;;;;;;;0.80;0.60;;;;;;;11.91;100.00;95814.78;4954522;28;20115;-72
2022/12/31 08:05:05;;;;;;;1.10;0.70;;;;;;;11.96;100.00;95825.31;4945482;28;20046;-74
2022/12/31 08:07:52;;;;;;;0.55;0.52;;;;;;;11.91;100.00;95827.94;4943259;28;20070;-74
2022/12/31 08:10:36;;;;;;;0.90;0.60;;;;;;;11.93;100.00;95828.50;4952506;28;20063;-73
2022/12/31 08:13:08;;;;;;;1.08;0.70;;;;;;;11.96;100.00;95825.31;4955802;28;20093;-75
2022/12/31 08:15:36;;;;;;;1.48;0.75;;;;;;;11.99;100.00;95821.34;4936117;28;20079;-74
2022/12/31 08:18:02;;;;;;;1.63;0.90;;;;;;;12.02;100.00;95830.56;4958190;28;20040;-73
2022/12/31 08:20:30;;;;;;;1.75;0.80;;;;;;;12.07;100.00;95812.09;4961006;28;20057;-74
2022/12/31 08:23:19;;;;;;;1.00;0.60;;;;;;;12.13;100.00;95822.34;4968894;28;20050;-75
2022/12/31 08:25:54;;;;;;;0.70;0.70;;;;;;;12.34;100.00;95826.72;4959362;28;20484;-74
2022/12/31 08:28:37;;;;;;;0.75;0.55;;;;;;;12.44;100.00;95821.38;4941348;28;20051;-74
2022/12/31 08:31:11;;;;;;;0.50;0.50;;;;;;;12.59;100.00;95829.22;4960973;28;20047;-74
2022/12/31 08:33:46;;;;;;;2.90;0.90;;;;;;;12.61;98.98;95835.03;4968416;28;20050;-74
2022/12/31 08:36:15;;;;;;;;;;;;;;;12.74;97.36;95825.72;4966939;28;20070;-74
2022/12/31 08:39:11;;;;;;;0.60;0.52;;;;;;;12.68;98.33;95826.00;4959368;28;19927;-74
2022/12/31 08:41:48;;;;;;;1.02;0.50;;;;;;;12.70;96.81;95813.31;4968152;28;20046;-74
2022/12/31 08:44:40;;;;;;;0.98;0.70;;;;;;;12.57;99.48;95820.78;4971368;28;20050;-75
2022/12/31 08:47:26;;;;;;;0.47;0.47;;;;;;;12.69;97.91;95811.75;4952923;28;20047;-76
2022/12/31 08:49:52;;;;;;;0.68;0.60;;;;;;;12.69;96.90;95811.75;4937759;28;20040;-76
2022/12/31 08:52:22;;;;;;;1.20;0.85;;;;;;;12.65;99.09;95822.06;4967537;28;20048;-77
2022/12/31 08:54:48;;;;;;;2.53;0.77;;;;;;;12.84;95.79;95819.53;4952236;28;20036;-77
2022/12/31 08:57:26;;;;;;;0.55;0.55;;;;;;;13.05;93.33;95809.59;4953139;28;20111;-76
2022/12/31 09:00:04;;;;;;;0.52;0.40;;;;;;;13.10;92.68;95795.56;4961897;28;20043;-75
2022/12/31 09:02:49;;;;;;;1.42;0.80;;;;;;;13.37;91.61;95805.66;4966362;28;20050;-75
2022/12/31 09:05:24;;;;;;;0.77;0.70;;;;;;;13.57;88.82;95815.22;4959111;28;20043;-74
2022/12/31 09:08:02;;;;;;;0.82;0.60;;;;;;;13.83;86.04;95817.59;4942051;28;20047;-74
2022/12/31 09:10:33;;;;;;;0.75;0.73;;;;;;;13.93;89.20;95824.63;4936561;29;20052;-74
2022/12/31 09:13:22;;;;;;;1.45;0.70;;;;;;;14.12;84.75;95827.31;4961272;28;20062;-75
2022/12/31 09:16:06;;;;;;;0.70;0.70;;;;;;;14.24;81.80;95838.28;4952719;28;20394;-74
2022/12/31 09:18:37;;;;;;;0.75;0.60;;;;;;;14.30;81.62;95837.13;4960183;28;20036;-74
2022/12/31 09:21:03;;;;;;;2.88;1.02;;;;;;;14.42;81.34;95828.00;4939617;29;20043;-75
2022/12/31 09:23:28;;;;;;;1.02;0.70;;;;;;;14.44;81.12;95831.13;4970127;28;20043;-74
2022/12/31 09:26:06;;;;;;;0.63;0.57;;;;;;;14.38;81.00;95831.22;4961053;28;20047;-74
2022/12/31 09:28:44;;;;;;;0.82;0.75;;;;;;;14.46;79.82;95829.00;4945777;28;20568;-73
2022/12/31 09:31:16;;;;;;;0.60;0.60;;;;;;;14.75;75.50;95830.75;4966583;28;20047;-74
2022/12/31 09:33:51;;;;;;;2.67;0.80;;;;;;;14.78;76.95;95824.88;4952610;28;20102;-75
2022/12/31 09:36:35;;;;;;;0.43;0.40;;;;;;;14.98;76.19;95824.53;4952760;28;20502;-74
2022/12/31 09:39:11;;;;;;;2.17;0.90;;;;;;;14.93;75.89;95826.47;4938359;29;20071;-70
2022/12/31 09:41:46;;;;;;;1.02;0.73;;;;;;;14.99;73.13;95826.13;4947909;28;20051;-77
2022/12/31 09:44:11;;;;;;;;;;;;;;;15.00;74.04;95822.41;4957133;28;20065;-74
2022/12/31 09:46:59;;;;;;;0.70;0.60;;;;;;;14.99;72.25;95815.53;4969028;28;19922;-77
2022/12/31 09:49:49;;;;;;;0.40;0.40;;;;;;;15.30;68.90;95817.69;4952996;28;20127;-74
2022/12/31 09:52:29;;;;;;;0.70;0.70;;;;;;;16.58;61.72;95818.94;4971749;28;20043;-73
2022/12/31 09:55:19;;;;;;;0.52;0.52;;;;;;;16.96;61.00;95813.28;4975415;28;20042;-73
2022/12/31 09:57:55;;;;;;;0.82;0.80;;;;;;;16.99;59.40;95818.00;4967914;28;20047;-73
2022/12/31 10:00:27;;;;;;;0.40;0.40;;;;;;;17.78;56.75;95813.88;4937959;28;20059;-74
2022/12/31 10:03:12;;;;;;;0.70;0.70;;;;;;;17.78;57.76;95811.19;4938447;28;20050;-73
2022/12/31 10:05:49;;;;;;;1.00;0.85;;;;;;;18.19;54.53;95806.66;4941113;29;20043;-73
2022/12/31 10:08:46;;;;;;;1.30;0.70;;;;;;;18.21;53.81;95812.44;4961775;28;20032;-74
2022/12/31 10:11:27;;;;;;;0.52;0.52;;;;;;;18.62;53.42;95805.13;4961701;28;20059;-72
2022/12/31 10:14:34;;;;;;;0.70;0.70;;;;;;;19.16;52.40;95808.25;4961326;28;20032;-73
2022/12/31 10:17:17;;;;;;;1.10;0.80;;;;;;;19.20;49.85;95798.50;4979538;28;20044;-73
2022/12/31 10:20:07;;;;;;;0.93;0.70;;;;;;;19.73;47.42;95798.34;4974993;28;20035;-73
2022/12/31 10:22:45;;;;;;;0.60;0.57;;;;;;;19.05;49.57;95801.69;4974540;28;20051;-73
2022/12/31 10:25:22;;;;;;;0.70;0.70;;;;;;;19.54;48.59;95794.19;4981135;28;20112;-73
2022/12/31 10:27:59;;;;;;;0.50;0.50;;;;;;;19.97;47.94;95791.66;4959839;28;20050;-73
2022/12/31 10:30:31;;;;;;;5.15;0.75;;;;;;;20.04;47.38;95791.91;4936499;29;20054;-73
2022/12/31 10:33:17;;;;;;;0.60;0.60;;;;;;;19.10;49.73;95796.19;4943892;28;20044;-73
2022/12/31 10:35:58;;;;;;;0.70;0.70;;;;;;;19.16;50.05;95791.47;4954225;28;20058;-73
2022/12/31 10:38:33;;;;;;;1.45;0.80;;;;;;;18.58;55.82;95788.22;4953381;28;20110;-74
2022/12/31 10:41:40;;;;;;;1.45;1.00;;;;;;;18.10;54.55;95780.03;4954367;28;20569;-73
2022/12/31 10:44:46;;;;;;;0.95;0.85;;;;;;;17.64;55.90;95790.03;4952824;28;20040;-73
2022/12/31 10:48:01;;;;;;;1.77;1.02;;;;;;;17.52;56.36;95786.38;4934824;28;20056;-74
2022/12/31 10:50:29;;;;;;;0.80;0.77;;;;;;;17.51;57.46;95790.13;4931284;29;20056;-74
2022/12/31 10:53:16;;;;;;;0.80;0.80;;;;;;;17.33;58.51;95792.72;4934759;29;20043;-74
2022/12/31 10:55:48;;;;;;;1.00;0.90;;;;;;;17.34;59.07;95781.00;4934424;29;20047;-71
2022/12/31 10:58:25;;;;;;;2.05;1.58;;;;;;;17.45;57.46;95787.59;4934898;28;20047;-74
2022/12/31 11:01:10;;;;;;;5.53;3.15;;;;;;;17.43;58.28;95795.09;4935939;29;20052;-73
2022/12/31 11:03:54;;;;;;;5.53;2.97;;;;;;;17.53;56.87;95782.63;4939540;28;20047;-73
2022/12/31 11:06:56;;;;;;;5.27;2.40;;;;;;;18.50;56.44;95777.25;4952489;29;20049;-73
2022/12/31 11:09:31;;;;;;;3.30;1.90;;;;;;;17.96;56.74;95784.69;4933398;29;20044;-73
2022/12/31 11:12:14;;;;;;;5.00;2.83;;;;;;;17.90;58.51;95775.22;4934729;29;20047;-73
2022/12/31 11:14:49;;;;;;;5.00;2.58;;;;;;;17.73;56.69;95776.75;4944927;28;20043;-73
2022/12/31 11:17:33;;;;;;;;;;;;;;;17.87;56.39;95765.19;4939406;28;20106;-73
2022/12/31 11:20:25;;;;;;;3.13;1.77;;;;;;;17.67;56.31;95772.69;4933981;28;19927;-73
2022/12/31 11:23:00;;;;;;;2.80;1.90;;;;;;;17.74;56.46;95770.34;4932969;29;20048;-73
2022/12/31 11:25:36;;;;;;;4.57;2.72;;;;;;;18.18;55.28;95765.91;4947112;28;20086;-73
2022/12/31 11:28:39;;;;;;;3.03;1.60;;;;;;;18.63;53.47;95764.84;4952979;29;20055;-73
2022/12/31 11:31:11;;;;;;;3.67;1.60;;;;;;;19.32;51.71;95762.38;4953290;28;20515;-73
2022/12/31 11:33:46;;;;;;;1.48;1.17;;;;;;;19.43;51.87;95752.94;4953135;28;20043;-73
2022/12/31 11:36:30;;;;;;;1.83;1.20;;;;;;;19.12;52.92;95740.66;4936032;28;20039;-73
2022/12/31 11:39:13;;;;;;;1.70;1.30;;;;;;;19.09;51.81;95743.91;4933858;29;20040;-73
2022/12/31 11:41:50;;;;;;;1.20;1.10;;;;;;;19.41;50.73;95744.47;4932647;29;20051;-73
2022/12/31 11:44:31;;;;;;;1.08;1.00;;;;;;;19.56;50.19;95740.47;4933656;28;20290;-73
2022/12/31 11:47:03;;;;;;;2.22;0.82;;;;;;;19.58;49.21;95743.59;4945666;29;20390;-73
2022/12/31 11:49:44;;;;;;;2.72;0.75;;;;;;;19.62;48.93;95738.41;4940874;28;20102;-73
2022/12/31 11:52:32;;;;;;;1.80;1.20;;;;;;;19.92;50.77;95725.09;4933563;29;20062;-73
2022/12/31 11:55:00;;;;;;;1.02;0.93;;;;;;;20.36;49.30;95723.66;4933599;28;20047;-73
2022/12/31 11:57:28;;;;;;;1.67;1.30;;;;;;;20.03;47.88;95721.69;4941880;28;20047;-73
2022/12/31 12:00:31;;;;;;;1.45;1.00;;;;;;;20.35;47.24;95716.75;4933481;29;20079;-73
2022/12/31 12:03:04;;;;;;;1.20;0.93;;;;;;;21.55;44.64;95722.34;4932376;29;20462;-73
2022/12/31 12:05:33;;;;;;;1.85;1.10;;;;;;;21.09;44.72;95706.31;4933500;28;20044;-73
2022/12/31 12:08:00;;;;;;;0.95;0.95;;;;;;;21.21;45.04;95710.91;4946001;29;20039;-73
2022/12/31 12:10:29;;;;;;;1.10;1.02;;;;;;;21.35;43.70;95707.13;4952389;28;20070;-73
2022/12/31 12:12:57;;;;;;;4.47;1.30;;;;;;;22.06;42.55;95713.13;4952391;28;20043;-73